createdAt,value
2017-03-17T00:00:55.042Z,56.41
2017-03-17T00:01:51.030Z,56.38
2017-03-17T00:03:04.399Z,56.40
2017-03-17T00:03:48.353Z,56.39
2017-03-17T00:04:45.142Z,56.40
2017-03-17T00:05:53.924Z,56.42
2017-03-17T00:06:45.226Z,56.42
2017-03-17T00:07:49.842Z,56.43
2017-03-17T00:09:00.445Z,56.43
2017-03-17T00:10:07.325Z,56.44
2017-03-17T00:10:59.700Z,56.45
2017-03-17T00:11:55.144Z,56.44
2017-03-17T00:12:50.427Z,56.45
2017-03-17T00:13:51.442Z,56.45
2017-03-17T00:14:59.476Z,56.45
2017-03-17T00:16:02.925Z,56.45
2017-03-17T00:16:52.761Z,56.45
2017-03-17T00:17:46.627Z,56.47
2017-03-17T00:18:50.980Z,56.47
2017-03-17T00:19:56.961Z,56.49
2017-03-17T00:21:07.304Z,56.51
2017-03-17T00:22:01.145Z,56.52
2017-03-17T00:22:59.520Z,56.51
2017-03-17T00:23:50.616Z,56.38
2017-03-17T00:25:08.635Z,55.66
2017-03-17T00:25:48.705Z,55.46
2017-03-17T00:26:58.980Z,55.37
2017-03-17T00:27:49.344Z,55.29
2017-03-17T00:28:56.977Z,55.65
2017-03-17T00:29:58.240Z,56.17
2017-03-17T00:30:50.662Z,56.28
2017-03-17T00:32:00.805Z,56.40
2017-03-17T00:32:44.900Z,56.45
2017-03-17T00:33:54.547Z,56.53
2017-03-17T00:34:55.707Z,56.62
2017-03-17T00:35:57.185Z,56.63
2017-03-17T00:36:53.618Z,56.60
2017-03-17T00:37:54.559Z,56.69
2017-03-17T00:38:50.792Z,56.64
2017-03-17T00:40:03.557Z,55.88
2017-03-17T00:40:54.888Z,55.70
2017-03-17T00:41:45.026Z,55.56
2017-03-17T00:42:50.333Z,55.51
2017-03-17T00:43:50.089Z,55.41
2017-03-17T00:44:50.200Z,55.44
2017-03-17T00:45:49.552Z,55.45
2017-03-17T00:46:53.627Z,55.44
2017-03-17T00:47:44.973Z,56.23
2017-03-17T00:48:44.899Z,56.42
2017-03-17T00:49:44.348Z,56.57
2017-03-17T00:50:46.479Z,56.61
2017-03-17T00:51:56.277Z,56.66
2017-03-17T00:52:51.124Z,56.69
2017-03-17T00:53:50.095Z,56.72
2017-03-17T00:54:50.927Z,56.74
2017-03-17T00:55:53.940Z,56.76
2017-03-17T00:56:54.255Z,56.82
2017-03-17T00:57:54.920Z,56.82
2017-03-17T00:58:44.906Z,56.84
2017-03-17T01:00:03.699Z,56.88
2017-03-17T01:00:52.849Z,56.89
2017-03-17T01:01:55.640Z,56.91
2017-03-17T01:02:55.762Z,56.90
2017-03-17T01:03:46.405Z,56.88
2017-03-17T01:05:00.546Z,56.94
2017-03-17T01:05:55.049Z,56.90
2017-03-17T01:06:45.054Z,56.92
2017-03-17T01:07:58.072Z,56.96
2017-03-17T01:08:58.593Z,56.96
2017-03-17T01:09:44.858Z,56.93
2017-03-17T01:11:05.231Z,56.94
2017-03-17T01:11:49.995Z,56.92
2017-03-17T01:13:18.490Z,56.95
2017-03-17T01:14:08.454Z,56.95
2017-03-17T01:14:55.931Z,56.97
2017-03-17T01:15:59.621Z,56.98
2017-03-17T01:16:50.716Z,56.94
2017-03-17T01:18:00.006Z,56.94
2017-03-17T01:19:04.291Z,56.95
2017-03-17T01:19:57.621Z,56.95
2017-03-17T01:20:50.250Z,56.95
2017-03-17T01:21:56.221Z,56.98
2017-03-17T01:22:54.988Z,56.97
2017-03-17T01:24:00.653Z,56.94
2017-03-17T01:24:49.324Z,56.95
2017-03-17T01:25:56.775Z,56.93
2017-03-17T01:26:54.388Z,56.92
2017-03-17T01:28:00.759Z,56.93
2017-03-17T01:28:59.783Z,56.92
2017-03-17T01:29:46.415Z,56.93
2017-03-17T01:30:49.644Z,56.94
2017-03-17T01:31:50.297Z,56.93
2017-03-17T01:32:44.527Z,56.91
2017-03-17T01:33:51.668Z,56.75
2017-03-17T01:34:59.872Z,56.03
2017-03-17T01:36:03.777Z,55.80
2017-03-17T01:36:49.810Z,55.68
2017-03-17T01:37:58.543Z,55.64
2017-03-17T01:38:49.447Z,55.61
2017-03-17T01:39:49.706Z,55.85
2017-03-17T01:40:51.827Z,56.43
2017-03-17T01:41:49.465Z,56.60
2017-03-17T01:43:02.956Z,56.71
2017-03-17T01:44:03.970Z,56.76
2017-03-17T01:45:03.404Z,56.81
2017-03-17T01:45:57.109Z,56.80
2017-03-17T01:46:51.058Z,56.86
2017-03-17T01:48:01.677Z,56.81
2017-03-17T01:48:50.709Z,56.82
2017-03-17T01:50:00.231Z,56.83
2017-03-17T01:50:59.218Z,56.89
2017-03-17T01:51:59.681Z,56.85
2017-03-17T01:52:51.487Z,56.88
2017-03-17T01:53:44.077Z,56.88
2017-03-17T01:54:46.209Z,56.86
2017-03-17T01:55:45.690Z,56.88
2017-03-17T01:57:04.990Z,56.85
2017-03-17T01:57:53.971Z,56.87
2017-03-17T01:58:54.788Z,56.89
2017-03-17T01:59:56.591Z,56.91
2017-03-17T02:00:56.197Z,56.89
2017-03-17T02:02:00.232Z,56.88
2017-03-17T02:02:59.131Z,56.88
2017-03-17T02:03:50.460Z,56.88
2017-03-17T02:04:58.938Z,56.85
2017-03-17T02:05:58.222Z,56.87
2017-03-17T02:06:45.618Z,56.85
2017-03-17T02:07:59.724Z,56.83
2017-03-17T02:08:55.985Z,56.82
2017-03-17T02:09:51.117Z,56.83
2017-03-17T02:10:50.074Z,56.81
2017-03-17T02:11:50.968Z,56.81
2017-03-17T02:12:49.961Z,56.81
2017-03-17T02:13:56.124Z,56.80
2017-03-17T02:14:54.254Z,56.79
2017-03-17T02:15:59.645Z,56.78
2017-03-17T02:16:53.726Z,56.79
2017-03-17T02:17:51.416Z,56.79
2017-03-17T02:18:50.575Z,56.77
2017-03-17T02:19:55.778Z,56.77
2017-03-17T02:20:44.347Z,56.77
2017-03-17T02:21:50.512Z,56.75
2017-03-17T02:22:50.140Z,56.76
2017-03-17T02:24:03.819Z,56.75
2017-03-17T02:24:52.785Z,56.77
2017-03-17T02:26:02.912Z,56.76
2017-03-17T02:26:56.627Z,56.76
2017-03-17T02:27:50.749Z,56.77
2017-03-17T02:28:54.903Z,56.77
2017-03-17T02:29:55.842Z,56.77
2017-03-17T02:30:54.788Z,56.75
2017-03-17T02:32:04.057Z,56.76
2017-03-17T02:32:47.796Z,56.75
2017-03-17T02:34:00.560Z,56.74
2017-03-17T02:35:00.081Z,56.75
2017-03-17T02:35:54.870Z,56.75
2017-03-17T02:36:49.921Z,56.75
2017-03-17T02:37:48.149Z,56.75
2017-03-17T02:38:53.947Z,56.75
2017-03-17T02:39:41.569Z,56.75
2017-03-17T02:40:50.678Z,56.75
2017-03-17T02:41:52.948Z,56.75
2017-03-17T02:42:49.948Z,56.75
2017-03-17T02:43:50.157Z,56.75
2017-03-17T02:44:55.484Z,56.74
2017-03-17T02:46:03.641Z,56.73
2017-03-17T02:46:53.617Z,56.74
2017-03-17T02:47:51.629Z,56.73
2017-03-17T02:48:55.508Z,56.75
2017-03-17T02:49:49.845Z,56.74
2017-03-17T02:50:45.880Z,56.73
2017-03-17T02:51:49.951Z,56.73
2017-03-17T02:52:50.667Z,56.75
2017-03-17T02:53:45.844Z,56.75
2017-03-17T02:54:51.077Z,56.77
2017-03-17T02:55:50.767Z,56.87
2017-03-17T02:56:51.724Z,56.88
2017-03-17T02:57:45.017Z,56.92
2017-03-17T02:58:47.662Z,56.98
2017-03-17T02:59:54.213Z,56.95
2017-03-17T03:00:44.208Z,56.92
2017-03-17T03:01:45.781Z,56.92
2017-03-17T03:03:07.520Z,56.93
2017-03-17T03:03:47.304Z,56.95
2017-03-17T03:04:55.517Z,56.93
2017-03-17T03:05:51.028Z,57.00
2017-03-17T03:06:50.133Z,56.96
2017-03-17T03:07:54.203Z,56.96
2017-03-17T03:08:50.113Z,56.96
2017-03-17T03:09:47.489Z,56.95
2017-03-17T03:10:57.017Z,57.00
2017-03-17T03:12:02.752Z,56.97
2017-03-17T03:12:58.942Z,57.00
2017-03-17T03:13:53.425Z,57.03
2017-03-17T03:14:59.845Z,57.04
2017-03-17T03:15:51.098Z,56.98
2017-03-17T03:16:45.906Z,57.01
2017-03-17T03:17:54.906Z,57.05
2017-03-17T03:18:50.790Z,57.07
2017-03-17T03:19:50.931Z,57.10
2017-03-17T03:20:53.546Z,57.10
2017-03-17T03:21:56.908Z,57.09
2017-03-17T03:22:48.069Z,57.12
2017-03-17T03:23:59.945Z,57.12
2017-03-17T03:25:04.087Z,57.11
2017-03-17T03:25:44.777Z,57.06
2017-03-17T03:26:55.862Z,57.05
2017-03-17T03:27:45.115Z,57.09
2017-03-17T03:29:00.368Z,57.04
2017-03-17T03:29:54.206Z,57.13
2017-03-17T03:30:50.439Z,57.10
2017-03-17T03:31:44.369Z,57.13
2017-03-17T03:32:44.496Z,57.16
2017-03-17T03:33:53.558Z,57.13
2017-03-17T03:34:38.148Z,57.11
2017-03-17T03:35:47.424Z,57.08
2017-03-17T03:36:50.052Z,57.08
2017-03-17T03:37:45.771Z,57.16
2017-03-17T03:38:46.649Z,57.13
2017-03-17T03:40:00.715Z,57.10
2017-03-17T03:40:45.677Z,57.13
2017-03-17T03:41:55.562Z,57.08
2017-03-17T03:43:00.072Z,57.05
2017-03-17T03:43:49.474Z,57.03
2017-03-17T03:44:53.636Z,57.12
2017-03-17T03:45:49.809Z,57.10
2017-03-17T03:46:50.116Z,57.14
2017-03-17T03:47:45.577Z,57.18
2017-03-17T03:48:49.328Z,57.19
2017-03-17T03:49:45.751Z,57.19
2017-03-17T03:50:51.391Z,57.21
2017-03-17T03:51:58.425Z,57.24
2017-03-17T03:52:53.864Z,57.26
2017-03-17T03:53:50.939Z,57.25
2017-03-17T03:54:57.645Z,57.26
2017-03-17T03:55:55.140Z,57.27
2017-03-17T03:56:58.400Z,57.29
2017-03-17T03:57:53.105Z,57.27
2017-03-17T03:58:50.679Z,57.29
2017-03-17T04:00:04.082Z,57.27
2017-03-17T04:00:59.067Z,57.29
2017-03-17T04:01:49.748Z,57.29
2017-03-17T04:03:00.727Z,57.29
2017-03-17T04:03:49.976Z,57.29
2017-03-17T04:04:50.529Z,57.28
2017-03-17T04:05:53.287Z,57.27
2017-03-17T04:06:53.524Z,57.25
2017-03-17T04:07:44.866Z,57.28
2017-03-17T04:08:44.352Z,57.27
2017-03-17T04:09:49.753Z,57.28
2017-03-17T04:10:46.606Z,57.27
2017-03-17T04:11:54.522Z,57.30
2017-03-17T04:13:07.002Z,57.29
2017-03-17T04:13:51.271Z,57.30
2017-03-17T04:15:03.073Z,57.18
2017-03-17T04:15:51.464Z,56.41
2017-03-17T04:16:59.979Z,56.55
2017-03-17T04:17:44.873Z,57.01
2017-03-17T04:18:54.345Z,57.15
2017-03-17T04:19:49.860Z,57.25
2017-03-17T04:20:48.426Z,57.27
2017-03-17T04:21:45.756Z,57.28
2017-03-17T04:22:50.688Z,57.30
2017-03-17T04:23:58.466Z,57.33
2017-03-17T04:24:50.907Z,57.34
2017-03-17T04:25:44.832Z,57.36
2017-03-17T04:26:49.930Z,57.39
2017-03-17T04:27:54.911Z,57.39
2017-03-17T04:28:45.772Z,57.40
2017-03-17T04:29:55.969Z,57.39
2017-03-17T04:30:50.687Z,57.38
2017-03-17T04:31:44.390Z,57.39
2017-03-17T04:32:59.705Z,57.39
2017-03-17T04:33:51.388Z,57.42
2017-03-17T04:34:46.252Z,57.41
2017-03-17T04:35:59.252Z,57.41
2017-03-17T04:36:46.298Z,57.41
2017-03-17T04:38:02.532Z,57.40
2017-03-17T04:38:51.866Z,57.41
2017-03-17T04:39:51.245Z,57.39
2017-03-17T04:40:56.948Z,57.25
2017-03-17T04:41:44.140Z,56.53
2017-03-17T04:42:58.876Z,56.35
2017-03-17T04:43:45.755Z,56.23
2017-03-17T04:44:51.475Z,56.20
2017-03-17T04:45:50.008Z,56.14
2017-03-17T04:46:40.300Z,56.10
2017-03-17T04:47:45.267Z,56.08
2017-03-17T04:48:50.041Z,56.38
2017-03-17T04:49:46.001Z,56.96
2017-03-17T04:50:50.875Z,57.13
2017-03-17T04:51:59.245Z,57.24
2017-03-17T04:52:57.173Z,57.29
2017-03-17T04:53:55.159Z,57.33
2017-03-17T04:54:45.372Z,57.36
2017-03-17T04:55:45.891Z,57.37
2017-03-17T04:56:47.766Z,57.37
2017-03-17T04:57:50.707Z,57.42
2017-03-17T04:58:51.560Z,57.36
2017-03-17T04:59:46.705Z,57.34
2017-03-17T05:00:59.094Z,57.36
2017-03-17T05:02:05.419Z,57.34
2017-03-17T05:02:59.254Z,57.35
2017-03-17T05:03:51.782Z,57.39
2017-03-17T05:04:54.039Z,57.43
2017-03-17T05:05:50.437Z,57.42
2017-03-17T05:06:45.440Z,57.45
2017-03-17T05:07:51.237Z,57.52
2017-03-17T05:08:55.698Z,57.53
2017-03-17T05:09:51.645Z,57.58
2017-03-17T05:10:45.892Z,57.60
2017-03-17T05:11:45.768Z,57.63
2017-03-17T05:12:41.598Z,57.64
2017-03-17T05:13:45.711Z,57.62
2017-03-17T05:15:00.376Z,57.63
2017-03-17T05:15:49.509Z,57.63
2017-03-17T05:16:55.132Z,57.60
2017-03-17T05:17:54.199Z,57.63
2017-03-17T05:18:50.257Z,57.61
2017-03-17T05:19:55.443Z,57.59
2017-03-17T05:20:50.946Z,57.61
2017-03-17T05:21:49.972Z,57.69
2017-03-17T05:22:50.887Z,57.66
2017-03-17T05:23:50.483Z,57.58
2017-03-17T05:25:00.099Z,57.53
2017-03-17T05:25:53.100Z,57.60
2017-03-17T05:26:54.915Z,57.58
2017-03-17T05:27:44.845Z,57.64
2017-03-17T05:29:00.927Z,57.64
2017-03-17T05:29:54.932Z,57.64
2017-03-17T05:31:04.119Z,57.63
2017-03-17T05:31:46.927Z,57.62
2017-03-17T05:32:49.955Z,57.59
2017-03-17T05:33:43.831Z,57.59
2017-03-17T05:34:39.811Z,57.58
2017-03-17T05:35:55.281Z,57.57
2017-03-17T05:36:49.999Z,57.57
2017-03-17T05:37:53.639Z,57.58
2017-03-17T05:38:53.041Z,57.57
2017-03-17T05:39:54.432Z,57.58
2017-03-17T05:40:45.855Z,57.57
2017-03-17T05:41:50.244Z,57.57
2017-03-17T05:43:00.391Z,57.57
2017-03-17T05:43:49.658Z,57.56
2017-03-17T05:44:52.250Z,57.56
2017-03-17T05:45:52.692Z,57.55
2017-03-17T05:46:44.934Z,57.55
2017-03-17T05:47:46.528Z,57.56
2017-03-17T05:48:56.933Z,57.56
2017-03-17T05:49:37.009Z,57.55
2017-03-17T05:50:43.759Z,57.57
2017-03-17T05:51:56.295Z,57.56
2017-03-17T05:52:59.202Z,57.56
2017-03-17T05:53:49.294Z,57.56
2017-03-17T05:54:44.159Z,57.57
2017-03-17T05:55:50.064Z,57.55
2017-03-17T05:56:57.067Z,57.54
2017-03-17T05:57:58.520Z,57.55
2017-03-17T05:58:57.242Z,57.56
2017-03-17T05:59:54.225Z,57.54
2017-03-17T06:00:55.114Z,57.51
2017-03-17T06:01:49.987Z,57.54
2017-03-17T06:02:50.325Z,57.54
2017-03-17T06:03:49.901Z,57.58
2017-03-17T06:05:00.441Z,57.63
2017-03-17T06:05:54.542Z,57.58
2017-03-17T06:06:33.976Z,56.97
2017-03-17T06:07:44.065Z,56.95
2017-03-17T06:08:45.144Z,57.77
2017-03-17T06:10:01.724Z,58.01
2017-03-17T06:10:50.518Z,58.18
2017-03-17T06:11:38.856Z,58.36
2017-03-17T06:12:55.827Z,58.42
2017-03-17T06:13:46.057Z,58.45
2017-03-17T06:14:54.893Z,58.41
2017-03-17T06:15:39.347Z,58.41
2017-03-17T06:16:50.990Z,58.47
2017-03-17T06:17:31.158Z,58.59
2017-03-17T06:18:54.623Z,58.62
2017-03-17T06:19:50.803Z,58.67
2017-03-17T06:20:50.611Z,58.71
2017-03-17T06:21:49.501Z,58.79
2017-03-17T06:22:37.803Z,58.85
2017-03-17T06:23:54.846Z,58.88
2017-03-17T06:24:46.498Z,58.96
2017-03-17T06:25:48.751Z,58.97
2017-03-17T06:26:55.034Z,59.09
2017-03-17T06:27:48.152Z,59.06
2017-03-17T06:28:40.749Z,59.10
2017-03-17T06:29:55.527Z,59.12
2017-03-17T06:30:38.469Z,59.17
2017-03-17T06:31:52.429Z,59.22
2017-03-17T06:32:52.925Z,59.25
2017-03-17T06:33:48.038Z,59.29
2017-03-17T06:34:59.800Z,59.31
2017-03-17T06:35:50.695Z,59.35
2017-03-17T06:36:55.193Z,59.24
2017-03-17T06:38:07.898Z,58.49
2017-03-17T06:38:59.489Z,58.63
2017-03-17T06:39:54.703Z,59.16
2017-03-17T06:40:51.254Z,59.32
2017-03-17T06:41:46.202Z,59.40
2017-03-17T06:42:45.759Z,59.47
2017-03-17T06:43:46.908Z,59.52
2017-03-17T06:44:59.068Z,59.58
2017-03-17T06:45:44.439Z,59.58
2017-03-17T06:46:44.645Z,59.60
2017-03-17T06:47:54.831Z,59.64
2017-03-17T06:48:51.241Z,59.66
2017-03-17T06:49:57.435Z,59.73
2017-03-17T06:50:50.991Z,59.74
2017-03-17T06:51:51.071Z,59.75
2017-03-17T06:52:59.533Z,59.75
2017-03-17T06:53:56.040Z,59.79
2017-03-17T06:54:53.973Z,59.78
2017-03-17T06:55:54.015Z,59.81
2017-03-17T06:56:44.472Z,59.85
2017-03-17T06:58:07.626Z,59.89
2017-03-17T06:58:51.796Z,59.96
2017-03-17T06:59:51.184Z,59.97
2017-03-17T07:00:59.207Z,60.06
2017-03-17T07:02:00.463Z,60.05
2017-03-17T07:02:44.263Z,60.07
2017-03-17T07:03:39.345Z,60.10
2017-03-17T07:04:49.851Z,60.10
2017-03-17T07:05:48.403Z,60.07
2017-03-17T07:06:52.815Z,60.08
2017-03-17T07:07:52.326Z,60.15
2017-03-17T07:08:54.267Z,60.16
2017-03-17T07:09:44.646Z,60.16
2017-03-17T07:10:34.309Z,60.14
2017-03-17T07:11:46.033Z,60.22
2017-03-17T07:12:43.954Z,60.19
2017-03-17T07:13:47.636Z,60.25
2017-03-17T07:14:49.607Z,60.35
2017-03-17T07:15:57.116Z,60.21
2017-03-17T07:16:42.780Z,57.21
2017-03-17T07:17:47.088Z,52.16
2017-03-17T07:18:46.414Z,50.06
2017-03-17T07:19:53.725Z,47.86
2017-03-17T07:21:00.573Z,47.13
2017-03-17T07:21:49.691Z,48.10
2017-03-17T07:22:51.959Z,46.38
2017-03-17T07:23:58.615Z,47.37
2017-03-17T07:25:00.678Z,47.90
2017-03-17T07:25:50.151Z,49.46
2017-03-17T07:27:04.622Z,50.09
2017-03-17T07:27:44.379Z,50.52
2017-03-17T07:28:59.589Z,50.67
2017-03-17T07:30:09.328Z,50.94
2017-03-17T07:30:44.181Z,51.05
2017-03-17T07:31:50.052Z,51.04
2017-03-17T07:32:50.074Z,51.05
2017-03-17T07:33:44.553Z,51.11
2017-03-17T07:34:50.797Z,51.18
2017-03-17T07:35:50.061Z,51.28
2017-03-17T07:36:40.129Z,51.18
2017-03-17T07:37:49.858Z,51.28
2017-03-17T07:38:51.093Z,51.24
2017-03-17T07:39:59.974Z,51.23
2017-03-17T07:40:38.872Z,51.20
2017-03-17T07:41:45.164Z,51.24
2017-03-17T07:42:54.398Z,51.21
2017-03-17T07:43:45.770Z,51.22
2017-03-17T07:44:50.358Z,51.26
2017-03-17T07:45:57.116Z,51.30
2017-03-17T07:47:07.155Z,51.36
2017-03-17T07:47:51.194Z,51.42
2017-03-17T07:48:51.374Z,51.42
2017-03-17T07:49:54.374Z,51.44
2017-03-17T07:50:49.064Z,51.48
2017-03-17T07:51:54.462Z,51.55
2017-03-17T07:52:47.853Z,51.59
2017-03-17T07:53:59.650Z,51.63
2017-03-17T07:54:55.166Z,51.65
2017-03-17T07:55:59.236Z,51.67
2017-03-17T07:56:57.039Z,51.64
2017-03-17T07:57:52.285Z,51.64
2017-03-17T07:58:45.837Z,51.64
2017-03-17T07:59:58.589Z,51.67
2017-03-17T08:00:48.744Z,51.67
2017-03-17T08:01:49.807Z,51.63
2017-03-17T08:02:48.798Z,51.67
2017-03-17T08:03:48.536Z,51.65
2017-03-17T08:04:49.012Z,51.71
2017-03-17T08:05:30.492Z,51.95
2017-03-17T08:06:34.767Z,52.02
2017-03-17T08:07:53.116Z,52.00
2017-03-17T08:08:45.397Z,52.10
2017-03-17T08:09:49.114Z,52.12
2017-03-17T08:10:48.650Z,52.15
2017-03-17T08:11:51.741Z,52.05
2017-03-17T08:12:49.975Z,52.08
2017-03-17T08:13:48.633Z,52.05
2017-03-17T08:14:54.847Z,51.97
2017-03-17T08:15:38.608Z,51.90
2017-03-17T08:16:49.328Z,51.82
2017-03-17T08:17:33.382Z,51.79
2017-03-17T08:18:54.684Z,51.74
2017-03-17T08:19:49.296Z,51.63
2017-03-17T08:20:50.091Z,51.60
2017-03-17T08:21:57.807Z,51.55
2017-03-17T08:22:48.686Z,51.54
2017-03-17T08:23:57.466Z,51.48
2017-03-17T08:24:53.690Z,51.49
2017-03-17T08:25:45.998Z,51.47
2017-03-17T08:26:49.847Z,51.42
2017-03-17T08:27:59.075Z,51.42
2017-03-17T08:29:02.377Z,50.58
2017-03-17T08:29:56.143Z,50.45
2017-03-17T08:30:54.740Z,50.37
2017-03-17T08:31:55.885Z,50.31
2017-03-17T08:32:45.287Z,50.58
2017-03-17T08:33:39.406Z,51.04
2017-03-17T08:34:59.705Z,51.26
2017-03-17T08:35:45.163Z,51.37
2017-03-17T08:36:29.111Z,51.43
2017-03-17T08:37:16.160Z,51.39
2017-03-17T08:38:56.772Z,50.73
2017-03-17T08:39:45.322Z,51.37
2017-03-17T08:40:59.820Z,51.46
2017-03-17T08:41:55.047Z,51.56
2017-03-17T08:43:01.469Z,51.63
2017-03-17T08:43:45.224Z,51.71
2017-03-17T08:44:50.036Z,51.75
2017-03-17T08:45:49.037Z,51.64
2017-03-17T08:46:53.628Z,50.98
2017-03-17T08:47:44.384Z,50.83
2017-03-17T08:48:53.749Z,50.73
2017-03-17T08:49:48.947Z,50.73
2017-03-17T08:50:49.629Z,50.71
2017-03-17T08:51:54.403Z,51.06
2017-03-17T08:52:49.703Z,51.57
2017-03-17T08:53:50.751Z,51.79
2017-03-17T08:54:51.671Z,51.85
2017-03-17T08:55:51.780Z,51.92
2017-03-17T08:56:51.586Z,51.99
2017-03-17T08:58:00.152Z,52.02
2017-03-17T08:58:48.745Z,52.10
2017-03-17T08:59:54.156Z,52.17
2017-03-17T09:00:52.913Z,52.22
2017-03-17T09:01:49.282Z,52.22
2017-03-17T09:02:39.288Z,52.26
2017-03-17T09:03:44.937Z,52.31
2017-03-17T09:04:46.196Z,52.33
2017-03-17T09:05:44.606Z,52.33
2017-03-17T09:06:59.187Z,52.35
2017-03-17T09:07:54.569Z,52.42
2017-03-17T09:08:54.480Z,52.43
2017-03-17T09:09:56.509Z,52.48
2017-03-17T09:10:51.697Z,52.50
2017-03-17T09:11:58.647Z,52.52
2017-03-17T09:12:49.181Z,52.56
2017-03-17T09:14:00.614Z,52.57
2017-03-17T09:15:04.090Z,52.60
2017-03-17T09:15:53.855Z,52.64
2017-03-17T09:16:46.116Z,52.66
2017-03-17T09:18:06.032Z,52.71
2017-03-17T09:18:55.254Z,52.72
2017-03-17T09:20:06.962Z,52.71
2017-03-17T09:20:45.258Z,52.77
2017-03-17T09:21:47.189Z,52.77
2017-03-17T09:22:48.678Z,52.83
2017-03-17T09:23:48.191Z,52.85
2017-03-17T09:24:54.228Z,52.81
2017-03-17T09:25:50.206Z,52.77
2017-03-17T09:26:44.967Z,52.78
2017-03-17T09:27:47.145Z,52.80
2017-03-17T09:28:54.886Z,52.83
2017-03-17T09:29:40.010Z,52.84
2017-03-17T09:30:53.624Z,52.83
2017-03-17T09:31:57.313Z,52.01
2017-03-17T09:32:47.722Z,52.18
2017-03-17T09:33:58.994Z,52.56
2017-03-17T09:34:50.107Z,52.67
2017-03-17T09:35:59.921Z,52.73
2017-03-17T09:36:53.592Z,52.74
2017-03-17T09:38:04.688Z,52.77
2017-03-17T09:38:37.147Z,52.80
2017-03-17T09:39:50.195Z,52.80
2017-03-17T09:40:45.682Z,52.80
2017-03-17T09:41:45.628Z,52.83
2017-03-17T09:42:56.101Z,52.84
2017-03-17T09:44:00.486Z,52.85
2017-03-17T09:45:04.491Z,52.85
2017-03-17T09:45:53.810Z,52.88
2017-03-17T09:46:45.633Z,52.89
2017-03-17T09:47:54.416Z,52.90
2017-03-17T09:48:46.596Z,52.91
2017-03-17T09:49:50.469Z,52.91
2017-03-17T09:50:55.109Z,52.94
2017-03-17T09:51:50.701Z,52.96
2017-03-17T09:52:59.247Z,52.97
2017-03-17T09:53:40.410Z,52.98
2017-03-17T09:54:48.643Z,53.02
2017-03-17T09:55:40.249Z,53.04
2017-03-17T09:57:05.069Z,53.03
2017-03-17T09:57:38.879Z,53.07
2017-03-17T09:58:46.775Z,53.09
2017-03-17T10:00:00.878Z,53.09
2017-03-17T10:00:48.943Z,53.11
2017-03-17T10:01:55.993Z,53.13
2017-03-17T10:02:45.029Z,53.16
2017-03-17T10:03:51.178Z,53.25
2017-03-17T10:04:50.125Z,53.24
2017-03-17T10:05:58.193Z,53.24
2017-03-17T10:06:52.821Z,53.24
2017-03-17T10:07:38.178Z,53.29
2017-03-17T10:08:56.141Z,53.33
2017-03-17T10:09:51.048Z,53.35
2017-03-17T10:10:37.591Z,53.38
2017-03-17T10:11:54.475Z,53.41
2017-03-17T10:12:50.802Z,53.42
2017-03-17T10:13:51.639Z,53.44
2017-03-17T10:14:50.808Z,53.45
2017-03-17T10:15:46.778Z,53.44
2017-03-17T10:17:06.150Z,53.46
2017-03-17T10:17:54.677Z,53.46
2017-03-17T10:19:06.350Z,53.48
2017-03-17T10:19:58.577Z,53.51
2017-03-17T10:20:54.587Z,53.49
2017-03-17T10:21:50.652Z,53.51
2017-03-17T10:22:55.733Z,53.52
2017-03-17T10:23:47.166Z,53.54
2017-03-17T10:24:50.257Z,53.54
2017-03-17T10:25:45.554Z,53.55
2017-03-17T10:26:59.583Z,53.56
2017-03-17T10:27:40.406Z,53.56
2017-03-17T10:28:48.815Z,53.58
2017-03-17T10:29:44.886Z,53.60
2017-03-17T10:30:43.006Z,53.61
2017-03-17T10:31:46.009Z,53.61
2017-03-17T10:32:50.810Z,53.63
2017-03-17T10:33:51.381Z,53.63
2017-03-17T10:34:46.190Z,53.67
2017-03-17T10:35:45.969Z,53.67
2017-03-17T10:36:55.148Z,53.69
2017-03-17T10:37:45.595Z,53.72
2017-03-17T10:38:55.790Z,53.61
2017-03-17T10:39:47.637Z,52.90
2017-03-17T10:41:08.211Z,52.71
2017-03-17T10:41:57.431Z,52.62
2017-03-17T10:42:39.224Z,52.57
2017-03-17T10:43:51.686Z,52.58
2017-03-17T10:44:46.213Z,52.83
2017-03-17T10:45:58.854Z,53.46
2017-03-17T10:47:02.916Z,53.63
2017-03-17T10:47:53.549Z,53.67
2017-03-17T10:48:50.369Z,53.69
2017-03-17T10:49:44.185Z,52.87
2017-03-17T10:50:48.692Z,52.71
2017-03-17T10:51:49.785Z,52.93
2017-03-17T10:52:38.649Z,53.42
2017-03-17T10:53:49.021Z,53.54
2017-03-17T10:54:50.343Z,53.59
2017-03-17T10:55:46.378Z,53.66
2017-03-17T10:56:50.193Z,53.74
2017-03-17T10:57:40.218Z,53.79
2017-03-17T10:58:49.194Z,53.85
2017-03-17T11:00:00.082Z,53.90
2017-03-17T11:00:50.341Z,54.02
2017-03-17T11:01:54.214Z,54.05
2017-03-17T11:02:54.483Z,53.20
2017-03-17T11:03:52.466Z,53.24
2017-03-17T11:04:53.494Z,53.77
2017-03-17T11:05:58.587Z,53.87
2017-03-17T11:06:56.822Z,53.94
2017-03-17T11:07:55.777Z,53.96
2017-03-17T11:08:51.280Z,53.97
2017-03-17T11:09:50.429Z,53.99
2017-03-17T11:10:45.689Z,54.01
2017-03-17T11:11:50.903Z,54.05
2017-03-17T11:12:44.236Z,54.03
2017-03-17T11:13:59.685Z,54.13
2017-03-17T11:14:57.237Z,54.17
2017-03-17T11:15:48.255Z,54.22
2017-03-17T11:16:45.067Z,54.34
2017-03-17T11:17:54.860Z,54.32
2017-03-17T11:18:46.429Z,54.33
2017-03-17T11:19:52.639Z,54.40
2017-03-17T11:20:50.572Z,54.46
2017-03-17T11:21:58.473Z,54.52
2017-03-17T11:22:45.287Z,54.49
2017-03-17T11:23:54.939Z,54.46
2017-03-17T11:24:44.941Z,54.48
2017-03-17T11:25:45.709Z,54.43
2017-03-17T11:26:44.698Z,54.48
2017-03-17T11:27:50.174Z,54.54
2017-03-17T11:28:49.077Z,54.58
2017-03-17T11:29:51.185Z,54.63
2017-03-17T11:30:49.670Z,54.63
2017-03-17T11:31:49.544Z,54.64
2017-03-17T11:33:16.923Z,54.66
2017-03-17T11:33:49.968Z,54.68
2017-03-17T11:34:46.020Z,54.72
2017-03-17T11:35:49.334Z,54.70
2017-03-17T11:36:49.114Z,54.69
2017-03-17T11:37:53.045Z,54.70
2017-03-17T11:38:48.778Z,54.71
2017-03-17T11:40:04.411Z,54.73
2017-03-17T11:40:49.287Z,54.73
2017-03-17T11:41:50.599Z,54.72
2017-03-17T11:42:47.647Z,54.70
2017-03-17T11:43:50.760Z,54.69
2017-03-17T11:44:52.617Z,54.70
2017-03-17T11:45:51.247Z,54.69
2017-03-17T11:46:46.976Z,54.68
2017-03-17T11:47:51.861Z,54.70
2017-03-17T11:48:46.858Z,54.69
2017-03-17T11:49:47.847Z,54.69
2017-03-17T11:50:38.730Z,54.69
2017-03-17T11:51:45.195Z,54.69
2017-03-17T11:52:46.450Z,54.68
2017-03-17T11:53:59.430Z,54.68
2017-03-17T11:54:46.870Z,54.71
2017-03-17T11:55:56.470Z,54.69
2017-03-17T11:56:45.075Z,54.71
2017-03-17T11:57:36.645Z,54.72
2017-03-17T11:59:00.264Z,54.59
2017-03-17T11:59:51.645Z,53.85
2017-03-17T12:01:01.053Z,53.65
2017-03-17T12:01:50.177Z,53.49
2017-03-17T12:02:45.839Z,53.44
2017-03-17T12:03:55.164Z,53.39
2017-03-17T12:04:49.916Z,53.37
2017-03-17T12:05:49.705Z,53.34
2017-03-17T12:06:50.834Z,53.30
2017-03-17T12:07:57.652Z,53.30
2017-03-17T12:08:59.631Z,53.35
2017-03-17T12:09:50.162Z,53.43
2017-03-17T12:10:53.613Z,53.42
2017-03-17T12:11:44.850Z,53.36
2017-03-17T12:12:44.570Z,53.39
2017-03-17T12:13:45.986Z,53.35
2017-03-17T12:14:59.782Z,53.32
2017-03-17T12:15:51.368Z,53.38
2017-03-17T12:16:50.129Z,53.42
2017-03-17T12:17:45.107Z,53.69
2017-03-17T12:18:45.203Z,54.25
2017-03-17T12:19:45.089Z,54.41
2017-03-17T12:21:00.401Z,54.50
2017-03-17T12:21:56.510Z,54.57
2017-03-17T12:23:06.433Z,54.74
2017-03-17T12:23:45.946Z,54.79
2017-03-17T12:24:45.623Z,54.71
2017-03-17T12:25:57.060Z,54.68
2017-03-17T12:26:58.673Z,54.68
2017-03-17T12:27:54.137Z,54.68
2017-03-17T12:28:49.897Z,54.69
2017-03-17T12:29:48.900Z,54.67
2017-03-17T12:31:00.150Z,54.64
2017-03-17T12:32:03.348Z,54.64
2017-03-17T12:32:47.808Z,54.56
2017-03-17T12:33:45.229Z,54.50
2017-03-17T12:34:44.094Z,54.50
2017-03-17T12:35:48.896Z,54.47
2017-03-17T12:36:59.358Z,54.45
2017-03-17T12:37:59.834Z,54.43
2017-03-17T12:38:55.014Z,54.41
2017-03-17T12:39:54.760Z,54.44
2017-03-17T12:40:50.916Z,54.42
2017-03-17T12:41:31.763Z,54.39
2017-03-17T12:42:45.669Z,54.42
2017-03-17T12:43:53.661Z,54.37
2017-03-17T12:44:45.239Z,54.36
2017-03-17T12:45:39.139Z,54.42
2017-03-17T12:46:48.884Z,54.41
2017-03-17T12:47:45.764Z,54.40
2017-03-17T12:48:53.957Z,54.37
2017-03-17T12:49:52.147Z,54.36
2017-03-17T12:50:52.651Z,54.39
2017-03-17T12:51:45.128Z,54.34
2017-03-17T12:52:45.275Z,54.38